Anaconda, MT (59711)

8:19 AM MST on February 07, 2016 (GMT -0700)
West 3rd | | Change Station
CLOSE
Current Station
Personal Weather Station
Location: Anaconda, MT
Elevation: 5302 ft
Nearby Weather Stations

Elev 5302 ft 46.13 °N, 112.96 °W | Updated 15 seconds ago

Overcast
Overcast
13.6 °F
Feels Like 14 °F
N
0.0
Wind Variable Wind from East
Gusts 0.0 mph

Today
High -- | Low -- °F
--% Chance of Precip.
Yesterday
High -- | Low -- °F
Precip. -- in
Pressure 30.67 in
Visibility 10.0 miles
Clouds Clear
Windchill 14 °F
Dew Point 11 °F
Humidity 88%
Rainfall 0.00 in
Snow Depth Not available.
7:47 AM 5:45 PM
Waning Crescent, 1% visible
METAR KBTM 071453Z AUTO 00000KT 10SM CLR M16/M18 A3045 RMK AO2 SLP384 T11611178 51018
Pressure 30.67 in
Visibility 10.0 miles
Clouds Clear
Windchill 14 °F
Dew Point 11 °F
Humidity 88%
Rainfall 0.00 in
Snow Depth Not available.
7:47 AM 5:45 PM
Waning Crescent, 1% visible
METAR KBTM 071453Z AUTO 00000KT 10SM CLR M16/M18 A3045 RMK AO2 SLP384 T11611178 51018

10-Day Weather Forecast

Almanac

Astronomy

Feb. 07, 2016 Rise Set
Actual Time
Civil Twilight
Nautical Twilight
Astronomical Twilight
Moon
Length of Visible Light
Length of Day
Tomorrow will be .
, % of the Moon is Illuminated

Today's Extremes

State Highs State Lows

Community

WunderPhotos

Upload Photos

1,891,214 photos uploaded!

WunderBlog® & News

Nearby

Air Quality

  Air Quality AQ Index Pollutant
Not available.

Snow Depth

Station Depth Elevation

Earthquake Activity

City Distance Mag. Time & Date
Minimum magnitude displayed is 2.5.

Coastal Water Temperatures

Place Temperature

Stations

Nearby Weather Stations

Station Location Temp. Windchill Dew Point Humidity Wind Precip. Elev Updated Type
                   

Watches & Warnings

There are currently no watches in effect.